Time;durP1;ratioP1;P1;durP2;ratioP2;P2;SDS_P1;SDS_P2;PMS_P1;PMS_P2;Temp;Humidity;BMP_temperature;BMP_pressure;BME280_temperature;BME280_humidity;BME280_pressure;Samples;Min_cycle;Max_cycle;Signal;HPM_P1;HPM_P2
2024/02/26 00:00:37;;;;;;;2.42;0.50;;;;;;;5.47;100.00;99951.91;5080932;28;20031;-66
2024/02/26 00:03:03;;;;;;;1.92;0.45;;;;;;;5.46;100.00;99946.84;5076017;28;20036;-66
2024/02/26 00:05:28;;;;;;;1.55;0.40;;;;;;;5.37;100.00;99945.00;5075996;28;20028;-66
2024/02/26 00:07:54;;;;;;;1.40;0.35;;;;;;;5.34;100.00;99944.31;5072128;28;20090;-66
2024/02/26 00:10:19;;;;;;;4.13;0.40;;;;;;;5.30;100.00;99949.84;5082475;28;20028;-66
2024/02/26 00:12:44;;;;;;;2.28;0.50;;;;;;;5.29;100.00;99937.88;5080555;28;20029;-66
2024/02/26 00:15:10;;;;;;;3.75;0.40;;;;;;;5.25;100.00;99939.06;5085376;28;20061;-66
2024/02/26 00:17:36;;;;;;;1.00;0.30;;;;;;;5.18;100.00;99938.75;5082104;28;20087;-66
2024/02/26 00:20:08;;;;;;;1.77;0.13;;;;;;;5.18;100.00;99932.78;5083110;28;20024;-66
2024/02/26 00:22:33;;;;;;;2.30;0.47;;;;;;;5.17;100.00;99936.31;5080371;28;20119;-66
2024/02/26 00:24:59;;;;;;;6.45;0.40;;;;;;;5.22;100.00;99934.16;5084618;28;20432;-66
2024/02/26 00:27:24;;;;;;;4.35;0.30;;;;;;;5.26;100.00;99932.97;5081525;28;20036;-66
2024/02/26 00:29:49;;;;;;;3.00;0.30;;;;;;;5.28;100.00;99938.81;5081502;28;20067;-66
2024/02/26 00:32:15;;;;;;;1.08;0.30;;;;;;;5.29;100.00;99932.72;5081428;28;20030;-67
2024/02/26 00:34:40;;;;;;;1.33;0.30;;;;;;;5.28;100.00;99931.06;5073700;28;20074;-66
2024/02/26 00:37:06;;;;;;;1.60;0.68;;;;;;;5.26;100.00;99930.38;5067151;28;20170;-66
2024/02/26 00:39:31;;;;;;;3.58;0.88;;;;;;;5.18;100.00;99925.03;5065795;28;20036;-66
2024/02/26 00:41:57;;;;;;;8.35;1.33;;;;;;;4.96;100.00;99920.75;5070926;28;20024;-66
2024/02/26 00:44:22;;;;;;;5.80;1.27;;;;;;;4.76;100.00;99918.91;5067878;28;20963;-66
2024/02/26 00:46:47;;;;;;;11.38;1.48;;;;;;;4.62;100.00;99920.00;5065657;28;20707;-66
2024/02/26 00:49:13;;;;;;;6.30;1.55;;;;;;;4.54;100.00;99912.06;5066734;28;20751;-66
2024/02/26 00:51:38;;;;;;;10.85;1.92;;;;;;;4.40;100.00;99913.13;5065666;28;20486;-66
2024/02/26 00:54:04;;;;;;;9.57;2.10;;;;;;;4.32;100.00;99905.97;5065871;28;20395;-67
2024/02/26 00:56:29;;;;;;;6.60;1.80;;;;;;;4.30;100.00;99905.25;5070160;28;20051;-66
2024/02/26 00:58:55;;;;;;;8.93;2.53;;;;;;;4.28;100.00;99896.81;5071526;28;20102;-66
2024/02/26 01:01:20;;;;;;;14.88;3.05;;;;;;;4.26;100.00;99900.44;5071824;28;20042;-66
2024/02/26 01:03:46;;;;;;;10.50;2.42;;;;;;;4.21;100.00;99898.25;5077017;28;20476;-66
2024/02/26 01:06:11;;;;;;;9.73;2.88;;;;;;;4.23;100.00;99898.97;5082559;28;20043;-66
2024/02/26 01:08:37;;;;;;;7.60;2.92;;;;;;;4.25;100.00;99885.94;5081810;28;20083;-66
2024/02/26 01:11:03;;;;;;;10.85;2.88;;;;;;;4.23;100.00;99891.22;5089037;28;20399;-66
2024/02/26 01:13:28;;;;;;;10.05;3.22;;;;;;;4.24;100.00;99887.69;5081256;28;20040;-67
2024/02/26 01:15:54;;;;;;;6.63;2.97;;;;;;;4.21;100.00;99876.81;5086024;28;20085;-66
2024/02/26 01:18:19;;;;;;;10.43;3.00;;;;;;;4.17;100.00;99883.97;5078612;28;20115;-66
2024/02/26 01:20:45;;;;;;;8.55;3.20;;;;;;;4.17;100.00;99885.72;5086889;28;20036;-66
2024/02/26 01:23:10;;;;;;;8.13;2.58;;;;;;;4.14;100.00;99876.44;5082141;28;20029;-66
2024/02/26 01:25:36;;;;;;;14.55;3.08;;;;;;;4.15;100.00;99883.25;5078775;28;20499;-66
2024/02/26 01:28:03;;;;;;;7.68;2.53;;;;;;;4.14;100.00;99871.28;5084804;28;20065;-66
2024/02/26 01:30:28;;;;;;;7.40;2.75;;;;;;;4.06;100.00;99875.41;5087654;28;20054;-66
2024/02/26 01:32:53;;;;;;;12.13;2.00;;;;;;;4.02;100.00;99872.22;5088472;28;20417;-66
2024/02/26 01:35:19;;;;;;;7.35;1.90;;;;;;;3.96;100.00;99867.53;5072369;28;20495;-66
2024/02/26 01:37:45;;;;;;;7.97;1.92;;;;;;;3.94;100.00;99870.22;5067135;28;20035;-66
2024/02/26 01:40:11;;;;;;;6.63;2.30;;;;;;;3.90;100.00;99868.00;5071127;28;20097;-66
2024/02/26 01:42:39;;;;;;;7.20;1.70;;;;;;;3.86;100.00;99858.84;5073248;28;20554;-66
2024/02/26 01:45:07;;;;;;;7.82;1.95;;;;;;;3.79;100.00;99862.84;5069731;28;20040;-66
2024/02/26 01:47:32;;;;;;;6.13;1.65;;;;;;;3.76;100.00;99860.50;5068422;28;20057;-66
2024/02/26 01:49:58;;;;;;;5.72;1.60;;;;;;;3.76;100.00;99861.34;5069528;28;20140;-66
2024/02/26 01:52:23;;;;;;;9.73;1.80;;;;;;;3.68;100.00;99858.50;5070140;28;20043;-67
2024/02/26 01:54:50;;;;;;;4.57;1.65;;;;;;;3.58;100.00;99863.53;5069903;28;20055;-66
2024/02/26 01:57:16;;;;;;;6.82;1.67;;;;;;;3.57;100.00;99861.06;5068847;28;20376;-67
2024/02/26 01:59:42;;;;;;;4.95;1.92;;;;;;;3.51;100.00;99854.63;5076208;28;20028;-66
2024/02/26 02:02:10;;;;;;;5.20;0.70;;;;;;;3.71;100.00;99852.31;5084542;28;20048;-66
2024/02/26 02:04:36;;;;;;;4.82;1.08;;;;;;;3.78;100.00;99849.13;5075778;28;20523;-66
2024/02/26 02:07:02;;;;;;;4.50;0.90;;;;;;;3.65;100.00;99849.25;5073942;28;20053;-67
2024/02/26 02:09:28;;;;;;;2.95;1.08;;;;;;;3.60;100.00;99846.19;5068164;28;20043;-67
2024/02/26 02:11:54;;;;;;;4.07;1.00;;;;;;;3.55;100.00;99852.63;5068383;28;20024;-66
2024/02/26 02:14:20;;;;;;;4.25;1.20;;;;;;;3.54;100.00;99845.84;5067167;28;20404;-66
2024/02/26 02:16:47;;;;;;;7.03;1.88;;;;;;;3.54;100.00;99843.25;5065635;28;20652;-66
2024/02/26 02:19:12;;;;;;;3.25;1.35;;;;;;;3.49;100.00;99845.34;5068106;28;20029;-66
2024/02/26 02:21:38;;;;;;;3.95;1.38;;;;;;;3.44;100.00;99843.13;5068592;28;20043;-66
2024/02/26 02:24:03;;;;;;;4.50;0.80;;;;;;;3.36;100.00;99842.03;5065028;28;20043;-66
2024/02/26 02:26:29;;;;;;;4.75;1.45;;;;;;;3.31;100.00;99845.78;5070429;28;20027;-66
2024/02/26 02:28:54;;;;;;;5.97;1.65;;;;;;;3.28;100.00;99838.31;5071197;28;20028;-66
2024/02/26 02:31:20;;;;;;;7.50;0.93;;;;;;;3.55;100.00;99838.00;5085766;28;20020;-66
2024/02/26 02:33:45;;;;;;;1.98;0.70;;;;;;;3.82;100.00;99834.25;5082054;28;20044;-67
2024/02/26 02:36:11;;;;;;;3.15;0.40;;;;;;;4.03;100.00;99831.81;5087665;28;20028;-67
2024/02/26 02:38:37;;;;;;;2.83;0.70;;;;;;;4.13;100.00;99835.31;5084239;28;20439;-67
2024/02/26 02:41:03;;;;;;;8.57;0.40;;;;;;;4.12;100.00;99831.91;5083980;28;20425;-66
2024/02/26 02:43:29;;;;;;;1.05;0.30;;;;;;;4.13;100.00;99827.59;5086872;28;20024;-67
2024/02/26 02:45:54;;;;;;;1.48;0.50;;;;;;;4.16;100.00;99833.31;5083200;28;20387;-67
2024/02/26 02:48:19;;;;;;;1.45;0.20;;;;;;;4.15;100.00;99836.84;5085620;28;20046;-67
2024/02/26 02:50:45;;;;;;;1.08;0.25;;;;;;;3.98;100.00;99835.56;5088486;28;20048;-67
2024/02/26 02:53:16;;;;;;;1.80;0.70;;;;;;;3.83;100.00;99826.41;5087140;28;20078;-67
2024/02/26 02:55:41;;;;;;;2.83;0.70;;;;;;;3.70;100.00;99830.06;5080683;28;20173;-67
2024/02/26 02:58:06;;;;;;;8.15;0.93;;;;;;;3.56;100.00;99826.75;5083354;28;20491;-67
2024/02/26 03:00:32;;;;;;;3.90;0.93;;;;;;;3.46;100.00;99825.81;5076838;28;20118;-67
2024/02/26 03:02:57;;;;;;;3.67;1.08;;;;;;;3.38;100.00;99822.16;5076078;28;20043;-67
2024/02/26 03:05:23;;;;;;;3.85;1.05;;;;;;;3.31;100.00;99820.03;5069405;28;20073;-67
2024/02/26 03:07:48;;;;;;;6.90;1.00;;;;;;;3.26;100.00;99814.44;5067487;28;20036;-67
2024/02/26 03:10:14;;;;;;;10.45;1.20;;;;;;;3.19;100.00;99817.56;5067939;28;20036;-67
2024/02/26 03:12:39;;;;;;;5.43;1.38;;;;;;;3.19;100.00;99809.84;5069013;28;20032;-67
2024/02/26 03:15:05;;;;;;;3.42;1.67;;;;;;;3.16;100.00;99808.31;5069736;28;20063;-67
2024/02/26 03:17:30;;;;;;;8.32;0.82;;;;;;;3.12;100.00;99818.94;5069467;28;20040;-67
2024/02/26 03:19:56;;;;;;;6.95;1.05;;;;;;;3.06;100.00;99809.09;5068965;28;20028;-67
2024/02/26 03:22:21;;;;;;;3.47;0.80;;;;;;;3.05;100.00;99810.84;5067866;28;20032;-67
2024/02/26 03:24:48;;;;;;;8.68;1.50;;;;;;;3.03;100.00;99809.31;5066090;28;20116;-67
2024/02/26 03:27:14;;;;;;;3.70;0.82;;;;;;;3.10;100.00;99811.34;5067941;28;20028;-67
2024/02/26 03:29:39;;;;;;;4.68;0.50;;;;;;;3.25;100.00;99809.41;5068687;28;20057;-67
2024/02/26 03:32:06;;;;;;;7.47;0.50;;;;;;;3.47;100.00;99804.25;5080094;28;20047;-67
2024/02/26 03:34:34;;;;;;;2.92;0.50;;;;;;;3.52;100.00;99807.31;5069943;28;20041;-67
2024/02/26 03:37:00;;;;;;;1.85;0.47;;;;;;;3.59;100.00;99802.53;5066137;28;20036;-67
2024/02/26 03:39:25;;;;;;;0.98;0.30;;;;;;;3.64;100.00;99798.66;5082408;28;20074;-66
2024/02/26 03:41:50;;;;;;;3.10;0.40;;;;;;;3.67;100.00;99798.44;5068695;28;20028;-67
2024/02/26 03:44:16;;;;;;;1.48;0.30;;;;;;;3.69;100.00;99797.50;5067154;28;20044;-66
2024/02/26 03:46:42;;;;;;;4.70;0.40;;;;;;;3.69;100.00;99793.16;5069715;28;20039;-66
2024/02/26 03:49:08;;;;;;;2.45;0.30;;;;;;;3.67;100.00;99793.28;5067380;28;20073;-67
2024/02/26 03:51:34;;;;;;;2.15;0.40;;;;;;;3.71;100.00;99786.16;5067569;28;20040;-67
2024/02/26 03:53:59;;;;;;;2.50;0.40;;;;;;;3.72;100.00;99786.97;5067268;28;20028;-67
2024/02/26 03:56:26;;;;;;;0.73;0.13;;;;;;;3.71;100.00;99790.47;5068810;28;20036;-67
2024/02/26 03:58:52;;;;;;;4.72;0.47;;;;;;;3.69;100.00;99787.19;5068051;28;22038;-67
2024/02/26 04:01:17;;;;;;;1.60;0.25;;;;;;;3.69;100.00;99790.59;5077601;28;20032;-67
2024/02/26 04:03:43;;;;;;;1.98;0.22;;;;;;;3.70;100.00;99794.00;5070857;28;20092;-66
2024/02/26 04:06:10;;;;;;;0.68;0.20;;;;;;;3.71;100.00;99786.16;5069129;28;20112;-67
2024/02/26 04:08:36;;;;;;;10.15;0.65;;;;;;;3.72;100.00;99792.94;5072139;28;20032;-66
2024/02/26 04:11:02;;;;;;;1.02;0.20;;;;;;;3.75;100.00;99791.88;5067062;28;20054;-66
2024/02/26 04:13:28;;;;;;;0.88;0.20;;;;;;;3.73;100.00;99799.72;5070432;28;20144;-66
2024/02/26 04:15:53;;;;;;;1.02;0.30;;;;;;;3.72;100.00;99794.69;5066162;28;22344;-67
2024/02/26 04:18:19;;;;;;;1.80;0.20;;;;;;;3.69;100.00;99793.16;5070832;28;20035;-67
2024/02/26 04:20:44;;;;;;;1.65;0.40;;;;;;;3.66;100.00;99791.66;5065136;28;20032;-66
2024/02/26 04:23:09;;;;;;;0.75;0.20;;;;;;;3.64;100.00;99796.09;5068126;28;20039;-67
2024/02/26 04:25:35;;;;;;;2.85;0.47;;;;;;;3.63;100.00;99794.44;5066852;28;20040;-67
2024/02/26 04:28:00;;;;;;;1.23;0.30;;;;;;;3.62;100.00;99782.50;5066303;28;20031;-67
2024/02/26 04:30:26;;;;;;;0.65;0.25;;;;;;;3.64;100.00;99780.63;5069809;28;20061;-67
2024/02/26 04:32:51;;;;;;;6.32;0.35;;;;;;;3.66;100.00;99794.22;5083950;28;20051;-67
2024/02/26 04:35:17;;;;;;;1.70;0.30;;;;;;;3.68;100.00;99796.69;5080098;28;20064;-67
2024/02/26 04:37:42;;;;;;;3.55;0.30;;;;;;;3.66;100.00;99801.13;5083238;28;20039;-67
2024/02/26 04:40:08;;;;;;;1.90;0.40;;;;;;;3.66;100.00;99796.78;5079388;28;20024;-67
2024/02/26 04:42:33;;;;;;;6.32;0.47;;;;;;;3.65;100.00;99797.72;5078656;28;20060;-67
2024/02/26 04:44:59;;;;;;;0.88;0.22;;;;;;;3.62;100.00;99787.66;5081360;28;20024;-67
2024/02/26 04:47:24;;;;;;;1.02;0.32;;;;;;;3.58;100.00;99791.41;5083522;28;20047;-67
2024/02/26 04:49:50;;;;;;;3.78;0.30;;;;;;;3.61;100.00;99795.50;5084951;28;20039;-67
2024/02/26 04:52:16;;;;;;;1.45;0.40;;;;;;;3.60;100.00;99788.72;5089856;28;20028;-67
2024/02/26 04:54:41;;;;;;;7.18;0.65;;;;;;;3.61;100.00;99786.03;5087583;28;20027;-67
2024/02/26 04:57:07;;;;;;;1.38;0.30;;;;;;;3.62;100.00;99787.66;5085937;28;20029;-67
2024/02/26 04:59:32;;;;;;;1.13;0.55;;;;;;;3.63;100.00;99786.72;5078580;28;20036;-67
2024/02/26 05:01:58;;;;;;;3.38;0.50;;;;;;;3.63;100.00;99789.31;5072119;28;20055;-66
2024/02/26 05:04:23;;;;;;;1.75;0.32;;;;;;;3.64;100.00;99784.97;5074233;28;20039;-66
2024/02/26 05:06:49;;;;;;;1.38;0.50;;;;;;;3.65;100.00;99795.16;5065688;28;20039;-67
2024/02/26 05:09:14;;;;;;;2.40;0.40;;;;;;;3.66;100.00;99783.91;5067958;28;20028;-67
2024/02/26 05:11:39;;;;;;;0.80;0.30;;;;;;;3.66;100.00;99788.25;5084132;28;20028;-67
2024/02/26 05:14:05;;;;;;;1.08;0.30;;;;;;;3.65;100.00;99784.84;5089961;28;20052;-67
2024/02/26 05:16:31;;;;;;;5.00;0.35;;;;;;;3.63;100.00;99784.16;5083513;28;20032;-66
2024/02/26 05:18:57;;;;;;;0.43;0.20;;;;;;;3.63;100.00;99797.03;5089256;28;20081;-67
2024/02/26 05:21:22;;;;;;;1.23;0.20;;;;;;;3.59;100.00;99789.66;5092736;28;20036;-67
2024/02/26 05:23:48;;;;;;;3.92;0.35;;;;;;;3.62;100.00;99792.00;5085696;28;20488;-67
2024/02/26 05:26:23;;;;;;;4.57;0.20;;;;;;;3.62;100.00;99792.81;5089932;28;20480;-67
2024/02/26 05:28:49;;;;;;;0.80;0.20;;;;;;;3.64;100.00;99790.94;5089245;28;20069;-67
2024/02/26 05:31:15;;;;;;;0.70;0.40;;;;;;;3.63;100.00;99799.59;5091658;28;20031;-66
2024/02/26 05:33:40;;;;;;;2.28;0.30;;;;;;;3.57;100.00;99799.25;5084220;28;20115;-67
2024/02/26 05:36:06;;;;;;;2.00;0.38;;;;;;;3.52;100.00;99799.59;5090133;28;20182;-67
2024/02/26 05:38:32;;;;;;;1.83;0.20;;;;;;;3.50;100.00;99809.19;5083703;28;20476;-67
2024/02/26 05:40:58;;;;;;;0.85;0.30;;;;;;;3.49;100.00;99812.69;5089096;28;20050;-67
2024/02/26 05:43:25;;;;;;;4.43;0.30;;;;;;;3.48;100.00;99816.22;5087621;28;20052;-67
2024/02/26 05:45:50;;;;;;;0.82;0.30;;;;;;;3.48;100.00;99826.50;5083072;28;20067;-66
2024/02/26 05:48:15;;;;;;;1.95;0.68;;;;;;;3.49;100.00;99824.75;5084891;28;20062;-68
2024/02/26 05:50:41;;;;;;;1.52;0.30;;;;;;;3.50;100.00;99824.66;5085701;28;20036;-66
2024/02/26 05:53:06;;;;;;;1.20;0.30;;;;;;;3.52;100.00;99830.50;5091911;28;20020;-67
2024/02/26 05:55:32;;;;;;;0.60;0.30;;;;;;;3.54;100.00;99825.22;5088962;28;20027;-68
2024/02/26 05:57:57;;;;;;;1.75;0.30;;;;;;;3.57;100.00;99828.41;5082947;28;20032;-67
2024/02/26 06:00:22;;;;;;;1.65;0.68;;;;;;;3.60;100.00;99828.16;5084296;28;20029;-68
2024/02/26 06:02:48;;;;;;;1.27;0.20;;;;;;;3.65;100.00;99832.97;5085314;28;20039;-67
2024/02/26 06:05:13;;;;;;;2.72;0.32;;;;;;;3.71;100.00;99836.84;5087603;28;20035;-68
2024/02/26 06:07:39;;;;;;;2.08;0.40;;;;;;;3.75;100.00;99839.09;5085552;28;20037;-68
2024/02/26 06:10:05;;;;;;;2.85;0.38;;;;;;;3.80;100.00;99844.69;5078730;28;20031;-68
2024/02/26 06:12:31;;;;;;;3.10;0.55;;;;;;;3.85;100.00;99847.72;5079835;28;20040;-68
2024/02/26 06:14:57;;;;;;;7.47;0.95;;;;;;;3.87;100.00;99851.00;5082781;28;20483;-68
2024/02/26 06:17:22;;;;;;;4.55;0.45;;;;;;;3.90;100.00;99861.09;5084664;28;20033;-68
2024/02/26 06:19:48;;;;;;;0.70;0.30;;;;;;;3.95;100.00;99853.00;5086179;28;20025;-68
2024/02/26 06:22:13;;;;;;;1.38;0.28;;;;;;;3.99;100.00;99851.84;5086292;28;20028;-67
2024/02/26 06:24:39;;;;;;;4.47;0.38;;;;;;;4.03;100.00;99853.25;5086592;28;20031;-68
2024/02/26 06:27:04;;;;;;;1.38;0.40;;;;;;;4.09;100.00;99855.34;5084582;28;20036;-68
2024/02/26 06:29:30;;;;;;;1.88;0.30;;;;;;;4.17;100.00;99865.91;5080184;28;20032;-68
2024/02/26 06:31:55;;;;;;;2.70;0.50;;;;;;;4.20;100.00;99864.84;5084270;28;20424;-68
2024/02/26 06:34:20;;;;;;;3.65;0.50;;;;;;;4.25;100.00;99873.84;5087219;28;20069;-68
2024/02/26 06:36:47;;;;;;;2.28;0.32;;;;;;;4.31;100.00;99870.78;5086133;28;20496;-68
2024/02/26 06:39:12;;;;;;;4.30;0.65;;;;;;;4.36;100.00;99870.44;5087473;28;20020;-68
2024/02/26 06:41:39;;;;;;;4.32;0.40;;;;;;;4.42;100.00;99858.81;5081550;28;20142;-68
2024/02/26 06:44:05;;;;;;;1.38;0.50;;;;;;;4.45;100.00;99866.31;5084042;28;20035;-68
2024/02/26 06:46:30;;;;;;;5.18;0.50;;;;;;;4.54;100.00;99870.78;5077355;28;20105;-68
2024/02/26 06:48:56;;;;;;;2.83;0.32;;;;;;;4.61;100.00;99875.34;5086916;28;20136;-68
2024/02/26 06:51:22;;;;;;;4.60;0.45;;;;;;;4.66;100.00;99872.41;5086995;28;20023;-68
2024/02/26 06:53:48;;;;;;;2.80;0.38;;;;;;;4.65;100.00;99878.50;5086813;28;20399;-68
2024/02/26 06:56:13;;;;;;;1.63;0.57;;;;;;;4.74;100.00;99885.47;5077774;28;20032;-68
2024/02/26 06:58:38;;;;;;;1.08;0.30;;;;;;;4.88;100.00;99877.47;5079940;28;20361;-68
2024/02/26 07:01:04;;;;;;;1.42;0.30;;;;;;;4.98;100.00;99882.72;5081374;28;20030;-68
2024/02/26 07:03:30;;;;;;;1.23;0.50;;;;;;;5.03;100.00;99887.53;5084897;28;20380;-68
2024/02/26 07:05:55;;;;;;;3.08;0.40;;;;;;;5.07;100.00;99892.31;5089723;28;20032;-68
2024/02/26 07:08:21;;;;;;;1.77;0.22;;;;;;;4.99;100.00;99892.09;5087409;28;20039;-68
2024/02/26 07:10:46;;;;;;;4.13;0.38;;;;;;;4.92;100.00;99886.63;5086489;28;20047;-68
2024/02/26 07:13:12;;;;;;;4.72;0.40;;;;;;;4.92;100.00;99891.78;5085568;28;20049;-68
2024/02/26 07:15:37;;;;;;;1.65;0.43;;;;;;;4.92;100.00;99896.13;5075643;28;20035;-68
2024/02/26 07:18:03;;;;;;;2.60;0.40;;;;;;;4.90;100.00;99890.25;5080362;28;20029;-68
2024/02/26 07:20:30;;;;;;;1.60;0.50;;;;;;;4.90;100.00;99895.41;5075451;28;20027;-68
2024/02/26 07:22:56;;;;;;;6.50;1.35;;;;;;;4.92;100.00;99899.53;5083462;28;20040;-68
2024/02/26 07:25:21;;;;;;;2.67;0.95;;;;;;;4.96;100.00;99900.91;5084083;28;20040;-68
2024/02/26 07:27:47;;;;;;;2.20;0.73;;;;;;;5.00;100.00;99896.34;5081528;28;20033;-67
2024/02/26 07:30:12;;;;;;;3.80;0.85;;;;;;;5.02;100.00;99894.44;5080218;28;20111;-67
2024/02/26 07:32:38;;;;;;;5.55;0.70;;;;;;;5.08;100.00;99887.97;5080477;28;20048;-68
2024/02/26 07:35:04;;;;;;;2.53;0.60;;;;;;;5.17;100.00;99889.81;5082631;28;20532;-68
2024/02/26 07:37:30;;;;;;;4.25;0.85;;;;;;;5.24;100.00;99893.53;5079983;28;20033;-68
2024/02/26 07:39:55;;;;;;;3.33;0.70;;;;;;;5.31;100.00;99885.16;5083479;28;20024;-68
2024/02/26 07:42:21;;;;;;;1.52;0.50;;;;;;;5.37;100.00;99891.59;5080946;28;20031;-68
2024/02/26 07:44:46;;;;;;;2.13;0.50;;;;;;;5.32;100.00;99885.97;5081828;28;20036;-67
2024/02/26 07:47:12;;;;;;;1.08;0.50;;;;;;;5.35;100.00;99883.13;5082575;28;20059;-67
2024/02/26 07:49:37;;;;;;;1.48;0.40;;;;;;;5.36;100.00;99887.38;5080394;28;20044;-67
2024/02/26 07:52:03;;;;;;;2.55;0.30;;;;;;;5.35;100.00;99890.88;5077952;28;20021;-67
2024/02/26 07:54:28;;;;;;;1.33;0.30;;;;;;;5.35;100.00;99888.31;5084316;28;20050;-68
2024/02/26 07:56:54;;;;;;;1.45;0.60;;;;;;;5.37;100.00;99886.41;5083174;28;20032;-68
2024/02/26 07:59:19;;;;;;;2.10;0.20;;;;;;;5.38;100.00;99889.81;5085368;28;20035;-67
2024/02/26 08:01:49;;;;;;;0.95;0.22;;;;;;;5.37;100.00;99889.00;5087981;28;20036;-67
2024/02/26 08:04:15;;;;;;;0.82;0.30;;;;;;;5.45;100.00;99885.78;5090226;28;20073;-67
2024/02/26 08:06:40;;;;;;;2.50;0.32;;;;;;;5.56;100.00;99888.31;5087933;28;20032;-68
2024/02/26 08:09:06;;;;;;;1.10;0.30;;;;;;;5.73;100.00;99899.81;5089489;28;20163;-68
2024/02/26 08:11:32;;;;;;;1.30;0.35;;;;;;;5.84;100.00;99904.94;5088102;28;20035;-68
2024/02/26 08:13:58;;;;;;;0.90;0.30;;;;;;;5.87;100.00;99912.44;5089108;28;20047;-68
2024/02/26 08:16:24;;;;;;;1.17;0.55;;;;;;;5.86;100.00;99918.56;5089545;28;20066;-68
2024/02/26 08:18:49;;;;;;;1.13;0.40;;;;;;;5.86;100.00;99915.97;5088154;28;20071;-68
2024/02/26 08:21:15;;;;;;;3.05;0.30;;;;;;;5.86;100.00;99914.19;5089563;28;20498;-68
2024/02/26 08:23:43;;;;;;;2.95;0.35;;;;;;;5.89;100.00;99905.41;5088136;28;20054;-68
2024/02/26 08:26:11;;;;;;;1.05;0.30;;;;;;;5.87;100.00;99912.44;5084132;28;20165;-68
2024/02/26 08:28:37;;;;;;;1.85;0.30;;;;;;;5.97;100.00;99900.41;5088182;28;20036;-69
2024/02/26 08:31:02;;;;;;;1.23;0.50;;;;;;;6.06;100.00;99909.16;5086618;28;20058;-69
2024/02/26 08:33:28;;;;;;;1.10;0.30;;;;;;;6.15;100.00;99900.59;5086018;28;20039;-68
2024/02/26 08:35:54;;;;;;;2.20;0.50;;;;;;;6.38;100.00;99901.25;5088394;28;20032;-68
2024/02/26 08:38:19;;;;;;;3.00;0.50;;;;;;;6.46;100.00;99904.00;5089567;28;20073;-68
2024/02/26 08:40:44;;;;;;;1.23;0.30;;;;;;;6.54;100.00;99896.41;5088341;28;20504;-68
2024/02/26 08:43:10;;;;;;;1.10;0.28;;;;;;;6.72;100.00;99899.97;5089486;28;20051;-68
2024/02/26 08:45:35;;;;;;;10.02;0.65;;;;;;;6.93;100.00;99892.09;5088192;28;20043;-68
2024/02/26 08:48:01;;;;;;;3.35;0.50;;;;;;;7.14;100.00;99886.78;5088913;28;20443;-68
2024/02/26 08:50:26;;;;;;;3.50;0.63;;;;;;;7.33;100.00;99881.59;5089578;28;20028;-68
2024/02/26 08:52:53;;;;;;;6.85;0.98;;;;;;;7.48;100.00;99892.38;5088297;28;20033;-68
2024/02/26 08:55:18;;;;;;;7.20;2.13;;;;;;;7.57;100.00;99894.91;5089820;28;20036;-68
2024/02/26 08:57:44;;;;;;;5.95;1.50;;;;;;;7.61;100.00;99892.88;5088484;28;20461;-68
2024/02/26 09:00:11;;;;;;;14.35;1.90;;;;;;;7.49;100.00;99894.00;5089598;28;20028;-68
2024/02/26 09:02:38;;;;;;;6.82;2.67;;;;;;;7.37;100.00;99895.09;5088148;28;20047;-68
2024/02/26 09:05:05;;;;;;;5.35;2.53;;;;;;;7.25;100.00;99897.00;5089544;28;20475;-68
2024/02/26 09:07:31;;;;;;;10.32;2.55;;;;;;;7.19;100.00;99898.38;5088608;28;20054;-68
2024/02/26 09:09:56;;;;;;;6.75;2.80;;;;;;;7.24;100.00;99887.59;5089602;28;20020;-68
2024/02/26 09:12:22;;;;;;;5.57;2.10;;;;;;;7.34;100.00;99896.19;5089699;28;20020;-68
2024/02/26 09:14:47;;;;;;;4.57;1.90;;;;;;;7.47;100.00;99890.72;5088312;28;20052;-68
2024/02/26 09:17:13;;;;;;;6.75;1.80;;;;;;;7.54;100.00;99892.63;5089658;28;20548;-68
2024/02/26 09:19:38;;;;;;;3.08;1.27;;;;;;;7.58;100.00;99893.16;5088611;28;20032;-68
2024/02/26 09:22:04;;;;;;;3.78;0.80;;;;;;;7.51;100.00;99892.91;5089543;28;20040;-68
2024/02/26 09:24:29;;;;;;;6.57;1.15;;;;;;;7.48;100.00;99893.19;5089435;28;20418;-68
2024/02/26 09:26:55;;;;;;;8.38;1.10;;;;;;;7.53;100.00;99905.72;5083437;28;20024;-69
2024/02/26 09:29:20;;;;;;;2.47;0.80;;;;;;;7.56;100.00;99906.25;5089859;28;20065;-68
2024/02/26 09:31:48;;;;;;;3.40;0.90;;;;;;;7.60;100.00;99907.59;5088777;28;20475;-68
2024/02/26 09:34:14;;;;;;;1.38;0.50;;;;;;;7.68;100.00;99908.69;5089986;28;20039;-68
2024/02/26 09:36:40;;;;;;;4.15;0.63;;;;;;;7.72;100.00;99912.63;5089226;28;20114;-68
2024/02/26 09:39:11;;;;;;;8.18;0.90;;;;;;;7.71;100.00;99913.59;5089791;28;20032;-68
2024/02/26 09:41:36;;;;;;;1.92;0.45;;;;;;;7.72;100.00;99912.63;5087382;28;20510;-67
2024/02/26 09:44:04;;;;;;;2.70;0.63;;;;;;;7.71;100.00;99914.41;5077223;28;20059;-68
2024/02/26 09:58:30;;;;;;;3.95;0.30;;;;;;;7.91;100.00;99910.81;5086520;27;20448;-64
2024/02/26 10:01:02;;;;;;;0.82;0.25;;;;;;;8.04;100.00;99913.09;5087139;28;20028;-64
2024/02/26 10:03:35;;;;;;;5.15;0.20;;;;;;;8.18;100.00;99915.22;5084800;28;20051;-64
2024/02/26 10:06:04;;;;;;;1.38;0.30;;;;;;;8.34;100.00;99908.66;5086100;28;20047;-64
2024/02/26 10:08:29;;;;;;;0.95;0.20;;;;;;;8.55;100.00;99910.03;5083824;28;20074;-64
2024/02/26 10:10:56;;;;;;;5.22;0.43;;;;;;;8.61;100.00;99919.03;5086984;28;20395;-65
2024/02/26 10:13:22;;;;;;;1.52;0.30;;;;;;;8.64;98.78;99911.75;5085886;28;20032;-64
2024/02/26 10:15:48;;;;;;;0.85;0.20;;;;;;;8.81;100.00;99919.75;5086716;28;20101;-64
2024/02/26 10:18:13;;;;;;;7.53;0.40;;;;;;;8.86;96.69;99913.16;5086273;28;20029;-64
2024/02/26 10:20:39;;;;;;;2.47;0.30;;;;;;;8.99;97.88;99910.97;5086748;28;20026;-65
2024/02/26 10:23:05;;;;;;;0.50;0.20;;;;;;;9.02;95.50;99911.66;5085821;28;20052;-65
2024/02/26 10:25:31;;;;;;;0.70;0.20;;;;;;;9.17;96.16;99913.59;5085840;28;20036;-63
2024/02/26 10:28:02;;;;;;;1.23;0.30;;;;;;;9.30;97.27;99910.63;5086522;28;20043;-63
2024/02/26 10:30:28;;;;;;;2.40;0.30;;;;;;;9.38;92.50;99902.91;5085280;28;20036;-64
2024/02/26 10:32:54;;;;;;;3.35;0.43;;;;;;;9.47;94.79;99907.16;5077009;28;20131;-65
2024/02/26 10:35:22;;;;;;;2.25;0.63;;;;;;;9.64;96.73;99910.72;5084638;28;20507;-65
2024/02/26 10:37:50;;;;;;;1.13;0.30;;;;;;;9.77;92.90;99903.34;5084932;28;20498;-66
2024/02/26 10:40:16;;;;;;;3.28;0.45;;;;;;;9.81;92.56;99903.84;5082831;28;20448;-65
2024/02/26 10:42:43;;;;;;;1.80;0.50;;;;;;;9.89;95.37;99901.31;5079210;28;20053;-66
2024/02/26 10:45:09;;;;;;;5.68;0.55;;;;;;;10.03;96.85;99898.09;5084681;28;20040;-67
2024/02/26 10:47:36;;;;;;;4.43;0.50;;;;;;;10.16;95.32;99898.50;5084870;28;20519;-66
2024/02/26 10:50:04;;;;;;;4.00;0.10;;;;;;;10.36;89.88;99908.72;5084977;28;20060;-66
2024/02/26 10:52:34;;;;;;;1.27;0.20;;;;;;;10.48;94.86;99903.03;5078593;28;20039;-66
2024/02/26 10:55:06;;;;;;;5.15;0.20;;;;;;;10.39;86.71;99895.38;5084977;28;20044;-66
2024/02/26 10:57:44;;;;;;;1.65;0.10;;;;;;;10.33;89.33;99893.41;5079082;28;20527;-67
2024/02/26 11:00:13;;;;;;;0.40;0.10;;;;;;;10.46;93.82;99893.75;5070464;28;20153;-66
2024/02/26 11:02:40;;;;;;;3.63;0.20;;;;;;;10.40;87.43;99879.56;5071481;28;20037;-66
2024/02/26 11:05:07;;;;;;;1.35;0.20;;;;;;;10.39;88.29;99883.19;5070426;28;20024;-66
2024/02/26 11:07:35;;;;;;;2.25;0.35;;;;;;;10.38;92.80;99875.53;5067391;28;20033;-66
2024/02/26 11:10:03;;;;;;;2.70;0.40;;;;;;;10.48;84.93;99878.78;5068888;28;20056;-65
2024/02/26 11:12:31;;;;;;;0.95;0.22;;;;;;;10.69;93.59;99876.59;5070484;28;20098;-65
2024/02/26 11:15:00;;;;;;;4.90;0.30;;;;;;;10.70;88.47;99875.59;5069708;28;20469;-65
2024/02/26 11:17:27;;;;;;;1.17;0.20;;;;;;;10.76;90.44;99874.97;5068891;28;20024;-65
2024/02/26 11:19:56;;;;;;;4.00;0.30;;;;;;;10.85;87.93;99874.03;5070657;28;20035;-65
2024/02/26 11:22:26;;;;;;;2.63;0.17;;;;;;;10.87;88.56;99868.66;5071443;28;20033;-65
2024/02/26 11:24:54;;;;;;;6.55;0.40;;;;;;;10.86;86.41;99872.22;5069491;28;20056;-66
2024/02/26 11:27:23;;;;;;;0.60;0.20;;;;;;;10.88;83.29;99860.63;5069798;28;20504;-65
2024/02/26 11:29:52;;;;;;;4.20;0.30;;;;;;;10.90;86.57;99866.50;5070758;28;20492;-64
2024/02/26 11:32:18;;;;;;;1.20;0.30;;;;;;;10.78;84.51;99859.19;5069267;28;20168;-65
2024/02/26 11:34:44;;;;;;;2.45;0.25;;;;;;;10.78;89.58;99857.38;5066632;28;20036;-66
2024/02/26 11:37:15;;;;;;;1.63;0.30;;;;;;;10.76;84.03;99854.13;5068460;28;20041;-65
2024/02/26 11:39:41;;;;;;;4.30;0.60;;;;;;;10.75;91.11;99857.72;5066681;28;20041;-67